createdAt,value
2023-02-12T00:00:15.429Z,46.40
2023-02-12T00:01:15.419Z,44.80
2023-02-12T00:02:15.659Z,45.30
2023-02-12T00:03:15.434Z,40.50
2023-02-12T00:04:15.378Z,41.70
2023-02-12T00:05:15.368Z,42.80
2023-02-12T00:06:16.151Z,46.30
2023-02-12T00:07:15.350Z,43.00
2023-02-12T00:08:15.331Z,39.60
2023-02-12T00:09:15.312Z,39.20
2023-02-12T00:10:15.301Z,37.20
2023-02-12T00:11:15.294Z,38.90
2023-02-12T00:12:15.286Z,35.20
2023-02-12T00:13:15.282Z,37.20
2023-02-12T00:14:15.254Z,38.70
2023-02-12T00:15:15.232Z,36.40
2023-02-12T00:16:15.343Z,39.80
2023-02-12T00:17:15.225Z,37.90
2023-02-12T00:18:15.193Z,39.00
2023-02-12T00:19:15.180Z,36.40
2023-02-12T00:20:15.171Z,38.60
2023-02-12T00:21:15.152Z,39.80
2023-02-12T00:22:15.160Z,38.50
2023-02-12T00:23:15.133Z,38.40
2023-02-12T00:24:15.121Z,39.40
2023-02-12T00:25:15.114Z,38.40
2023-02-12T00:26:15.101Z,36.30
2023-02-12T00:27:15.108Z,36.20
2023-02-12T00:28:15.111Z,36.50
2023-02-12T00:29:15.083Z,37.50
2023-02-12T00:30:15.051Z,39.40
2023-02-12T00:31:15.211Z,40.50
2023-02-12T00:32:15.014Z,39.00
2023-02-12T00:33:15.030Z,38.30
2023-02-12T00:34:14.990Z,37.80
2023-02-12T00:35:14.972Z,48.00
2023-02-12T00:36:14.958Z,47.30
2023-02-12T00:37:14.947Z,47.10
2023-02-12T00:38:14.947Z,49.30
2023-02-12T00:39:14.925Z,49.60
2023-02-12T00:40:14.908Z,46.00
2023-02-12T00:41:14.897Z,45.80
2023-02-12T00:42:14.881Z,47.90
2023-02-12T00:43:14.895Z,44.50
2023-02-12T00:44:14.876Z,46.90
2023-02-12T00:45:14.871Z,44.80
2023-02-12T00:46:14.892Z,46.50
2023-02-12T00:47:14.821Z,45.00
2023-02-12T00:48:14.823Z,44.30
2023-02-12T00:49:14.790Z,45.60
2023-02-12T00:50:14.777Z,44.20
2023-02-12T00:51:14.774Z,47.20
2023-02-12T00:52:14.762Z,41.80
2023-02-12T00:53:14.763Z,43.40
2023-02-12T00:54:14.729Z,45.60
2023-02-12T00:55:14.715Z,44.50
2023-02-12T00:56:14.717Z,46.40
2023-02-12T00:57:14.692Z,44.30
2023-02-12T00:58:16.687Z,44.50
2023-02-12T00:59:14.667Z,45.50
2023-02-12T01:00:14.657Z,44.90
2023-02-12T01:01:14.693Z,42.30
2023-02-12T01:02:14.628Z,43.70
2023-02-12T01:03:14.627Z,48.40
2023-02-12T01:04:14.625Z,48.00
2023-02-12T01:05:14.646Z,45.90
2023-02-12T01:06:14.569Z,46.30
2023-02-12T01:07:14.568Z,52.50
2023-02-12T01:08:14.577Z,51.30
2023-02-12T01:09:14.532Z,51.50
2023-02-12T01:10:14.520Z,49.00
2023-02-12T01:11:14.514Z,48.40
2023-02-12T01:12:14.502Z,49.20
2023-02-12T01:13:14.498Z,47.40
2023-02-12T01:14:14.486Z,48.70
2023-02-12T01:15:14.459Z,46.00
2023-02-12T01:16:14.554Z,50.40
2023-02-12T01:17:14.451Z,49.30
2023-02-12T01:18:14.434Z,49.70
2023-02-12T01:19:14.436Z,46.20
2023-02-12T01:20:14.390Z,45.40
2023-02-12T01:21:14.380Z,45.40
2023-02-12T01:22:14.365Z,42.00
2023-02-12T01:23:14.369Z,42.90
2023-02-12T01:24:14.337Z,41.70
2023-02-12T01:25:14.326Z,41.00
2023-02-12T01:26:14.315Z,40.90
2023-02-12T01:27:14.299Z,38.80
2023-02-12T01:28:14.340Z,38.30
2023-02-12T01:29:14.280Z,37.00
2023-02-12T01:30:14.269Z,40.80
2023-02-12T01:31:14.335Z,39.80
2023-02-12T01:32:14.380Z,37.50
2023-02-12T01:33:14.261Z,37.10
2023-02-12T01:34:14.208Z,37.90
2023-02-12T01:35:14.209Z,40.80
2023-02-12T01:36:14.193Z,37.80
2023-02-12T01:37:14.178Z,40.80
2023-02-12T01:38:14.168Z,42.80
2023-02-12T01:39:14.154Z,40.10
2023-02-12T01:40:14.131Z,37.40
2023-02-12T01:41:14.121Z,39.50
2023-02-12T01:42:14.104Z,39.70
2023-02-12T01:43:14.104Z,41.00
2023-02-12T01:44:14.088Z,37.00
2023-02-12T01:45:14.062Z,38.10
2023-02-12T01:46:14.166Z,38.90
2023-02-12T01:47:14.036Z,39.80
2023-02-12T01:48:14.039Z,39.10
2023-02-12T01:49:14.038Z,38.80
2023-02-12T01:50:14.024Z,37.80
2023-02-12T01:51:13.997Z,39.40
2023-02-12T01:52:13.981Z,39.50
2023-02-12T01:53:13.975Z,39.60
2023-02-12T01:54:13.948Z,43.30
2023-02-12T01:55:13.944Z,36.90
2023-02-12T01:56:13.922Z,39.80
2023-02-12T01:57:13.910Z,42.20
2023-02-12T01:58:13.908Z,38.40
2023-02-12T01:59:13.901Z,39.90
2023-02-12T02:00:13.872Z,40.70
2023-02-12T02:01:13.876Z,39.50
2023-02-12T02:02:13.848Z,39.50
2023-02-12T02:03:13.901Z,36.80
2023-02-12T02:04:13.830Z,38.70
2023-02-12T02:05:13.824Z,39.50
2023-02-12T02:06:13.798Z,40.50
2023-02-12T02:07:13.780Z,38.30
2023-02-12T02:08:13.783Z,40.40
2023-02-12T02:09:13.752Z,39.10
2023-02-12T02:10:13.748Z,39.50
2023-02-12T02:11:13.728Z,39.10
2023-02-12T02:12:13.735Z,37.00
2023-02-12T02:13:13.717Z,39.30
2023-02-12T02:14:13.685Z,39.50
2023-02-12T02:15:13.679Z,39.80
2023-02-12T02:16:13.708Z,37.30
2023-02-12T02:17:13.649Z,42.60
2023-02-12T02:18:13.660Z,36.40
2023-02-12T02:19:13.616Z,37.70
2023-02-12T02:20:13.601Z,37.60
2023-02-12T02:21:13.608Z,34.20
2023-02-12T02:22:13.581Z,36.90
2023-02-12T02:23:13.562Z,36.60
2023-02-12T02:24:13.590Z,37.40
2023-02-12T02:25:13.536Z,36.50
2023-02-12T02:26:13.527Z,39.20
2023-02-12T02:27:13.515Z,39.10
2023-02-12T02:28:13.570Z,37.70
2023-02-12T02:29:13.504Z,41.30
2023-02-12T02:30:13.469Z,39.50
2023-02-12T02:31:13.621Z,41.00
2023-02-12T02:32:13.444Z,42.00
2023-02-12T02:33:13.436Z,42.20
2023-02-12T02:34:13.431Z,40.70
2023-02-12T02:35:13.415Z,38.70
2023-02-12T02:36:13.392Z,38.50
2023-02-12T02:37:13.412Z,37.90
2023-02-12T02:38:13.370Z,40.10
2023-02-12T02:39:13.365Z,39.50
2023-02-12T02:40:13.337Z,41.10
2023-02-12T02:41:13.328Z,39.50
2023-02-12T02:42:13.311Z,41.90
2023-02-12T02:43:13.303Z,42.50
2023-02-12T02:44:13.303Z,38.60
2023-02-12T02:45:13.281Z,40.80
2023-02-12T02:46:13.329Z,43.70
2023-02-12T02:47:13.250Z,41.80
2023-02-12T02:48:13.238Z,41.00
2023-02-12T02:49:13.242Z,40.90
2023-02-12T02:50:13.205Z,39.60
2023-02-12T02:51:13.196Z,38.20
2023-02-12T02:52:13.182Z,39.50
2023-02-12T02:53:13.240Z,41.70
2023-02-12T02:54:13.176Z,42.50
2023-02-12T02:55:13.147Z,41.40
2023-02-12T02:56:13.133Z,40.30
2023-02-12T02:57:13.126Z,41.70
2023-02-12T02:58:13.106Z,39.40
2023-02-12T02:59:13.114Z,37.80
2023-02-12T03:00:13.080Z,39.60
2023-02-12T03:01:13.107Z,39.20
2023-02-12T03:02:13.053Z,39.00
2023-02-12T03:03:13.051Z,41.10
2023-02-12T03:04:13.041Z,40.40
2023-02-12T03:05:13.031Z,41.90
2023-02-12T03:06:13.009Z,40.10
2023-02-12T03:07:12.987Z,42.20
2023-02-12T03:08:12.970Z,41.20
2023-02-12T03:09:13.008Z,43.30
2023-02-12T03:10:12.958Z,41.70
2023-02-12T03:11:12.937Z,42.80
2023-02-12T03:12:12.919Z,43.10
2023-02-12T03:13:12.911Z,40.20
2023-02-12T03:14:12.896Z,40.40
2023-02-12T03:15:12.901Z,39.40
2023-02-12T03:16:12.889Z,41.80
2023-02-12T03:17:12.873Z,40.10
2023-02-12T03:18:12.842Z,39.70
2023-02-12T03:19:12.889Z,42.30
2023-02-12T03:20:12.838Z,43.80
2023-02-12T03:21:12.807Z,40.70
2023-02-12T03:22:12.797Z,40.40
2023-02-12T03:23:12.787Z,39.60
2023-02-12T03:24:12.770Z,40.90
2023-02-12T03:25:12.798Z,42.90
2023-02-12T03:26:12.754Z,40.40
2023-02-12T03:27:12.736Z,40.50
2023-02-12T03:28:12.758Z,41.30
2023-02-12T03:29:12.706Z,39.50
2023-02-12T03:30:12.710Z,43.30
2023-02-12T03:31:12.763Z,39.80
2023-02-12T03:32:12.670Z,38.80
2023-02-12T03:33:12.652Z,42.10
2023-02-12T03:34:12.639Z,40.40
2023-02-12T03:35:12.652Z,42.20
2023-02-12T03:36:12.613Z,41.60
2023-02-12T03:37:12.602Z,44.50
2023-02-12T03:38:12.592Z,43.00
2023-02-12T03:39:12.574Z,38.50
2023-02-12T03:40:12.578Z,42.10
2023-02-12T03:41:12.584Z,43.00
2023-02-12T03:42:12.537Z,46.30
2023-02-12T03:43:12.523Z,42.80
2023-02-12T03:44:12.514Z,44.70
2023-02-12T03:45:12.511Z,44.30
2023-02-12T03:46:12.528Z,45.00
2023-02-12T03:47:12.471Z,41.40
2023-02-12T03:48:12.473Z,38.60
2023-02-12T03:49:12.448Z,39.40
2023-02-12T03:50:12.464Z,37.80
2023-02-12T03:51:12.425Z,38.90
2023-02-12T03:52:12.410Z,38.40
2023-02-12T03:53:12.403Z,40.90
2023-02-12T03:54:12.386Z,44.00
2023-02-12T03:55:12.386Z,39.20
2023-02-12T03:56:12.354Z,40.00
2023-02-12T03:57:12.369Z,40.90
2023-02-12T03:58:12.329Z,38.90
2023-02-12T03:59:12.413Z,38.90
2023-02-12T04:00:12.316Z,39.10
2023-02-12T04:01:12.425Z,38.60
2023-02-12T04:02:12.337Z,37.40
2023-02-12T04:03:12.266Z,40.80
2023-02-12T04:04:12.261Z,36.90
2023-02-12T04:05:12.251Z,39.50
2023-02-12T04:06:12.221Z,40.60
2023-02-12T04:07:12.209Z,36.80
2023-02-12T04:08:12.198Z,41.30
2023-02-12T04:09:12.180Z,39.30
2023-02-12T04:10:12.181Z,38.90
2023-02-12T04:11:12.158Z,40.00
2023-02-12T04:12:12.143Z,38.90
2023-02-12T04:13:12.159Z,36.70
2023-02-12T04:14:12.114Z,38.20
2023-02-12T04:15:12.125Z,39.00
2023-02-12T04:16:12.127Z,38.30
2023-02-12T04:17:12.077Z,39.30
2023-02-12T04:18:12.063Z,40.00
2023-02-12T04:19:12.056Z,40.10
2023-02-12T04:20:12.078Z,37.90
2023-02-12T04:21:12.027Z,41.20
2023-02-12T04:22:12.009Z,41.30
2023-02-12T04:23:11.997Z,39.30
2023-02-12T04:24:11.986Z,40.60
2023-02-12T04:25:11.975Z,40.00
2023-02-12T04:26:11.982Z,41.90
2023-02-12T04:27:11.957Z,40.20
2023-02-12T04:28:12.010Z,35.70
2023-02-12T04:29:11.947Z,38.70
2023-02-12T04:30:11.911Z,38.50
2023-02-12T04:31:12.105Z,41.00
2023-02-12T04:32:11.881Z,40.70
2023-02-12T04:33:11.880Z,39.10
2023-02-12T04:34:11.857Z,39.20
2023-02-12T04:35:11.850Z,39.10
2023-02-12T04:36:11.848Z,39.90
2023-02-12T04:37:11.824Z,40.00
2023-02-12T04:38:11.817Z,38.70
2023-02-12T04:39:11.801Z,41.10
2023-02-12T04:40:11.788Z,39.10
2023-02-12T04:41:11.791Z,41.70
2023-02-12T04:42:11.760Z,40.10
2023-02-12T04:43:11.742Z,41.80
2023-02-12T04:44:11.733Z,40.70
2023-02-12T04:45:12.511Z,37.50
2023-02-12T04:46:11.815Z,41.80
2023-02-12T04:47:11.690Z,43.30
2023-02-12T04:48:11.679Z,39.70
2023-02-12T04:49:11.670Z,39.60
2023-02-12T04:50:11.651Z,40.90
2023-02-12T04:51:11.655Z,39.50
2023-02-12T04:52:11.632Z,38.50
2023-02-12T04:53:11.620Z,40.50
2023-02-12T04:54:11.599Z,39.20
2023-02-12T04:55:11.591Z,40.40
2023-02-12T04:56:11.591Z,38.40
2023-02-12T04:57:11.564Z,41.40
2023-02-12T04:58:11.549Z,41.80
2023-02-12T04:59:11.545Z,44.10
2023-02-12T05:00:11.522Z,39.50
2023-02-12T05:01:11.571Z,41.80
2023-02-12T05:02:11.511Z,41.00
2023-02-12T05:03:11.490Z,38.90
2023-02-12T05:04:11.473Z,38.70
2023-02-12T05:05:11.500Z,41.10
2023-02-12T05:06:11.466Z,39.10
2023-02-12T05:07:11.432Z,41.50
2023-02-12T05:08:11.423Z,41.80
2023-02-12T05:09:11.409Z,38.00
2023-02-12T05:10:11.396Z,39.40
2023-02-12T05:11:11.399Z,39.90
2023-02-12T05:12:11.365Z,40.20
2023-02-12T05:13:11.356Z,38.60
2023-02-12T05:14:11.347Z,39.80
2023-02-12T05:15:11.341Z,39.00
2023-02-12T05:16:11.356Z,39.20
2023-02-12T05:17:11.327Z,37.70
2023-02-12T05:18:11.291Z,38.00
2023-02-12T05:19:11.291Z,35.90
2023-02-12T05:20:11.265Z,39.00
2023-02-12T05:21:11.267Z,37.90
2023-02-12T05:22:11.238Z,36.70
2023-02-12T05:23:11.222Z,37.40
2023-02-12T05:24:11.216Z,36.10
2023-02-12T05:25:11.202Z,37.90
2023-02-12T05:26:11.201Z,39.30
2023-02-12T05:27:11.182Z,37.20
2023-02-12T05:28:11.205Z,38.60
2023-02-12T05:29:11.145Z,38.00
2023-02-12T05:30:11.136Z,38.80
2023-02-12T05:31:11.310Z,36.50
2023-02-12T05:32:11.219Z,35.60
2023-02-12T05:33:11.115Z,34.60
2023-02-12T05:34:11.087Z,34.20
2023-02-12T05:35:11.072Z,36.00
2023-02-12T05:36:11.073Z,38.70
2023-02-12T05:37:11.054Z,35.80
2023-02-12T05:38:11.033Z,37.30
2023-02-12T05:39:11.009Z,36.40
2023-02-12T05:40:10.997Z,36.50
2023-02-12T05:41:10.986Z,34.30
2023-02-12T05:42:10.989Z,34.50
2023-02-12T05:43:10.959Z,36.00
2023-02-12T05:44:10.948Z,37.10
2023-02-12T05:45:10.930Z,34.90
2023-02-12T05:46:11.028Z,35.40
2023-02-12T05:47:10.925Z,34.60
2023-02-12T05:48:10.898Z,35.70
2023-02-12T05:49:10.914Z,34.50
2023-02-12T05:50:10.867Z,34.90
2023-02-12T05:51:10.855Z,34.80
2023-02-12T05:52:10.880Z,34.10
2023-02-12T05:53:10.838Z,32.80
2023-02-12T05:54:10.815Z,35.70
2023-02-12T05:55:10.817Z,38.60
2023-02-12T05:56:10.797Z,39.10
2023-02-12T05:57:10.793Z,36.70
2023-02-12T05:58:10.773Z,40.90
2023-02-12T05:59:10.745Z,39.30
2023-02-12T06:00:10.735Z,41.20
2023-02-12T06:01:10.722Z,44.20
2023-02-12T06:02:10.736Z,42.20
2023-02-12T06:03:10.700Z,39.60
2023-02-12T06:04:10.794Z,38.90
2023-02-12T06:05:10.698Z,41.60
2023-02-12T06:06:10.670Z,40.60
2023-02-12T06:07:10.674Z,41.70
2023-02-12T06:08:10.632Z,41.70
2023-02-12T06:09:10.619Z,40.30
2023-02-12T06:10:10.606Z,43.60
2023-02-12T06:11:10.594Z,38.90
2023-02-12T06:12:10.602Z,41.90
2023-02-12T06:13:10.566Z,40.70
2023-02-12T06:14:10.561Z,38.10
2023-02-12T06:15:10.542Z,40.80
2023-02-12T06:16:10.606Z,38.90
2023-02-12T06:17:10.529Z,39.90
2023-02-12T06:18:10.504Z,40.20
2023-02-12T06:19:10.486Z,40.60
2023-02-12T06:20:10.479Z,41.20
2023-02-12T06:21:10.492Z,39.80
2023-02-12T06:22:10.466Z,41.50
2023-02-12T06:23:10.435Z,41.20
2023-02-12T06:24:10.422Z,40.20
2023-02-12T06:25:10.415Z,41.70
2023-02-12T06:26:10.395Z,38.50
2023-02-12T06:27:11.223Z,40.40
2023-02-12T06:28:10.420Z,41.60
2023-02-12T06:29:10.366Z,40.70
2023-02-12T06:30:10.356Z,43.00
2023-02-12T06:31:10.462Z,44.30
2023-02-12T06:32:10.444Z,41.30
2023-02-12T06:33:10.311Z,39.60
2023-02-12T06:34:10.306Z,42.50
2023-02-12T06:35:10.282Z,41.50
2023-02-12T06:36:10.268Z,38.70
2023-02-12T06:37:10.309Z,44.00
2023-02-12T06:38:10.246Z,41.10
2023-02-12T06:39:10.225Z,42.60
2023-02-12T06:40:10.218Z,41.40
2023-02-12T06:41:10.205Z,41.30
2023-02-12T06:42:10.229Z,41.60
2023-02-12T06:43:10.190Z,42.60
2023-02-12T06:44:10.169Z,42.80
2023-02-12T06:45:10.149Z,42.50
2023-02-12T06:46:10.168Z,41.00
2023-02-12T06:47:10.131Z,44.60
2023-02-12T06:48:10.135Z,43.00
2023-02-12T06:49:10.100Z,41.00
2023-02-12T06:50:10.099Z,45.50
2023-02-12T06:51:10.096Z,41.40
2023-02-12T06:52:10.063Z,41.70
2023-02-12T06:53:10.091Z,45.30
2023-02-12T06:54:10.042Z,43.80
2023-02-12T06:55:10.024Z,44.10
2023-02-12T06:56:10.010Z,41.00
2023-02-12T06:57:10.006Z,39.50
2023-02-12T06:58:10.003Z,40.60
2023-02-12T06:59:09.977Z,41.30
2023-02-12T07:00:09.967Z,41.00
2023-02-12T07:01:10.074Z,42.10
2023-02-12T07:02:09.935Z,39.90
2023-02-12T07:03:09.967Z,41.20
2023-02-12T07:04:09.972Z,40.20
2023-02-12T07:05:09.891Z,39.30
2023-02-12T07:06:09.888Z,38.10
2023-02-12T07:07:09.867Z,39.40
2023-02-12T07:08:09.887Z,40.70
2023-02-12T07:09:09.863Z,41.70
2023-02-12T07:10:09.833Z,41.20
2023-02-12T07:11:09.819Z,38.60
2023-02-12T07:12:09.803Z,41.80
2023-02-12T07:13:09.806Z,36.30
2023-02-12T07:14:09.774Z,39.60
2023-02-12T07:15:09.761Z,41.50
2023-02-12T07:16:09.848Z,39.70
2023-02-12T07:17:09.753Z,40.80
2023-02-12T07:18:09.734Z,39.60
2023-02-12T07:19:09.708Z,39.00
2023-02-12T07:20:09.707Z,40.30
2023-02-12T07:21:09.690Z,38.10
2023-02-12T07:22:09.680Z,37.30
2023-02-12T07:23:09.704Z,38.80
2023-02-12T07:24:09.710Z,37.90
2023-02-12T07:25:09.656Z,38.60
2023-02-12T07:26:09.623Z,36.40
2023-02-12T07:27:09.609Z,39.10
2023-02-12T07:28:09.641Z,41.00
2023-02-12T07:29:09.583Z,38.50
2023-02-12T07:30:09.574Z,41.60
2023-02-12T07:31:09.764Z,44.50
2023-02-12T07:32:10.303Z,44.00
2023-02-12T07:33:09.546Z,46.10
2023-02-12T07:34:09.556Z,45.60
2023-02-12T07:35:09.517Z,46.40
2023-02-12T07:36:09.501Z,46.00
2023-02-12T07:37:09.477Z,48.60
2023-02-12T07:38:09.477Z,47.10
2023-02-12T07:39:09.451Z,46.00
2023-02-12T07:40:09.440Z,46.80
2023-02-12T07:41:10.754Z,44.50
2023-02-12T07:42:09.416Z,43.60
2023-02-12T07:43:09.415Z,45.30
2023-02-12T07:44:09.391Z,45.70
2023-02-12T07:45:09.376Z,44.60
2023-02-12T07:46:09.460Z,42.70
2023-02-12T07:47:09.347Z,43.20
2023-02-12T07:48:09.357Z,43.10
2023-02-12T07:49:09.328Z,45.20
2023-02-12T07:50:09.314Z,44.70
2023-02-12T07:51:09.305Z,45.90
2023-02-12T07:52:10.996Z,46.00
2023-02-12T07:53:09.303Z,46.40
2023-02-12T07:54:09.274Z,46.90
2023-02-12T07:55:09.247Z,48.10
2023-02-12T07:56:09.234Z,45.60
2023-02-12T07:57:09.245Z,48.80
2023-02-12T07:58:09.208Z,51.60
2023-02-12T07:59:09.207Z,51.90
2023-02-12T08:00:09.189Z,49.00
2023-02-12T08:01:09.164Z,46.10
2023-02-12T08:02:09.200Z,45.80
2023-02-12T08:03:09.141Z,47.40
2023-02-12T08:04:09.210Z,45.40
2023-02-12T08:05:09.128Z,45.30
2023-02-12T08:06:09.106Z,45.20
2023-02-12T08:07:09.088Z,43.10
2023-02-12T08:08:09.081Z,44.40
2023-02-12T08:09:09.077Z,45.80
2023-02-12T08:10:09.051Z,46.60
2023-02-12T08:11:09.039Z,48.70
2023-02-12T08:12:09.020Z,45.20
2023-02-12T08:13:09.031Z,43.90
2023-02-12T08:14:09.022Z,42.30
2023-02-12T08:15:08.980Z,44.90
2023-02-12T08:16:08.995Z,45.40
2023-02-12T08:17:08.955Z,45.30
2023-02-12T08:18:08.941Z,46.80
2023-02-12T08:19:18.749Z,45.60
2023-02-12T08:20:08.922Z,47.80
2023-02-12T08:21:08.902Z,49.90
2023-02-12T08:22:08.888Z,49.20
2023-02-12T08:23:08.876Z,48.50
2023-02-12T08:24:08.878Z,45.80
2023-02-12T08:25:08.856Z,47.20
2023-02-12T08:26:08.847Z,46.30
2023-02-12T08:27:08.826Z,49.20
2023-02-12T08:28:08.840Z,47.50
2023-02-12T08:29:08.831Z,46.90
2023-02-12T08:30:08.795Z,47.60
2023-02-12T08:31:08.808Z,50.00
2023-02-12T08:32:08.821Z,47.80
2023-02-12T08:33:08.754Z,47.00
2023-02-12T08:34:08.747Z,47.60
2023-02-12T08:35:08.724Z,49.10
2023-02-12T08:36:08.705Z,49.10
2023-02-12T08:37:08.697Z,48.40
2023-02-12T08:38:08.683Z,46.90
2023-02-12T08:39:08.683Z,46.20
2023-02-12T08:40:08.663Z,46.40
2023-02-12T08:41:08.692Z,46.30
2023-02-12T08:42:08.630Z,47.70
2023-02-12T08:43:08.616Z,47.20
2023-02-12T08:44:08.697Z,46.10
2023-02-12T08:45:08.613Z,48.30
2023-02-12T08:46:08.694Z,47.90
2023-02-12T08:47:08.562Z,48.40
2023-02-12T08:48:08.548Z,48.20
2023-02-12T08:49:08.545Z,47.30
2023-02-12T08:50:08.518Z,43.70
2023-02-12T08:51:08.507Z,47.70
2023-02-12T08:52:08.495Z,50.20
2023-02-12T08:53:08.477Z,48.30
2023-02-12T08:54:08.476Z,46.80
2023-02-12T08:55:08.454Z,50.30
2023-02-12T08:56:08.437Z,49.20
2023-02-12T08:57:08.432Z,49.00
2023-02-12T08:58:08.406Z,48.20
2023-02-12T08:59:08.415Z,48.10
2023-02-12T09:00:08.382Z,45.90
2023-02-12T09:01:08.427Z,47.30
2023-02-12T09:02:08.401Z,47.00
2023-02-12T09:03:08.347Z,46.20
2023-02-12T09:04:08.341Z,47.30
2023-02-12T09:05:08.315Z,48.00
2023-02-12T09:06:08.306Z,46.80
2023-02-12T09:07:10.775Z,47.10
2023-02-12T09:08:08.327Z,45.50
2023-02-12T09:09:08.294Z,45.60
2023-02-12T09:10:08.259Z,46.50
2023-02-12T09:11:08.286Z,48.70
2023-02-12T09:12:08.223Z,49.50
2023-02-12T09:13:08.215Z,47.10
2023-02-12T09:14:08.200Z,46.70
2023-02-12T09:15:08.200Z,46.20
2023-02-12T09:16:08.171Z,45.70
2023-02-12T09:17:08.253Z,49.80
2023-02-12T09:18:08.143Z,49.00
2023-02-12T09:19:08.143Z,47.10
2023-02-12T09:20:08.140Z,46.60
2023-02-12T09:21:08.112Z,51.50
2023-02-12T09:22:08.095Z,50.50
2023-02-12T09:23:08.081Z,48.60
2023-02-12T09:24:08.070Z,48.80
2023-02-12T09:25:08.072Z,46.80
2023-02-12T09:26:08.060Z,46.10
2023-02-12T09:27:08.029Z,48.70
2023-02-12T09:28:08.043Z,48.10
2023-02-12T09:29:08.005Z,46.70
2023-02-12T09:30:08.009Z,51.90
2023-02-12T09:31:08.068Z,49.00
2023-02-12T09:32:08.047Z,51.40
2023-02-12T09:33:08.005Z,52.00
2023-02-12T09:34:07.944Z,54.00
2023-02-12T09:35:07.942Z,53.60
2023-02-12T09:36:07.918Z,52.90
2023-02-12T09:37:07.904Z,52.80
2023-02-12T09:38:07.894Z,51.10
2023-02-12T09:39:07.878Z,53.00
2023-02-12T09:40:07.873Z,52.60
2023-02-12T09:41:07.846Z,55.60
2023-02-12T09:42:07.832Z,51.70
2023-02-12T09:43:07.825Z,53.00
2023-02-12T09:44:07.806Z,56.10
2023-02-12T09:45:07.808Z,57.20
2023-02-12T09:46:07.821Z,50.40
2023-02-12T09:47:07.769Z,52.80
2023-02-12T09:48:07.840Z,55.60
2023-02-12T09:49:07.766Z,54.20
2023-02-12T09:50:07.751Z,56.30
2023-02-12T09:51:07.718Z,53.70
2023-02-12T09:52:07.706Z,54.50
2023-02-12T09:53:07.700Z,54.70
2023-02-12T09:54:07.680Z,55.20
2023-02-12T09:55:07.677Z,50.80
2023-02-12T09:56:07.650Z,56.00
2023-02-12T09:57:07.657Z,54.90
2023-02-12T09:58:08.177Z,54.30
2023-02-12T09:59:07.617Z,53.90
2023-02-12T10:00:07.637Z,56.90
2023-02-12T10:01:07.621Z,53.50
2023-02-12T10:02:07.592Z,53.10
2023-02-12T10:03:07.574Z,52.00
2023-02-12T10:04:07.622Z,53.60
2023-02-12T10:05:07.784Z,57.50
2023-02-12T10:06:07.530Z,53.40
2023-02-12T10:07:07.511Z,57.90
2023-02-12T10:08:07.501Z,54.60
2023-02-12T10:09:07.506Z,55.20
2023-02-12T10:10:08.112Z,54.80
2023-02-12T10:11:07.461Z,55.90
2023-02-12T10:12:07.441Z,56.20
2023-02-12T10:13:07.450Z,55.50
2023-02-12T10:14:07.419Z,62.30
2023-02-12T10:15:07.421Z,66.40
2023-02-12T10:16:07.435Z,63.90
2023-02-12T10:17:07.388Z,67.70
2023-02-12T10:18:07.381Z,66.30
2023-02-12T10:19:07.368Z,68.10
2023-02-12T10:20:07.359Z,68.60
2023-02-12T10:21:07.371Z,68.10
2023-02-12T10:22:07.319Z,62.30
2023-02-12T10:23:07.299Z,56.90
2023-02-12T10:24:07.286Z,56.50
2023-02-12T10:25:07.320Z,58.30
2023-02-12T10:26:07.261Z,59.90
2023-02-12T10:27:07.252Z,57.20
2023-02-12T10:28:07.264Z,59.60
2023-02-12T10:29:07.222Z,56.90
2023-02-12T10:30:07.202Z,51.20
2023-02-12T10:31:07.344Z,56.10
2023-02-12T10:32:07.185Z,55.10
2023-02-12T10:33:07.166Z,55.20
2023-02-12T10:34:07.151Z,49.30
2023-02-12T10:35:07.146Z,48.30
2023-02-12T10:36:07.144Z,50.30
2023-02-12T10:37:07.142Z,50.20
2023-02-12T10:38:07.099Z,50.60
2023-02-12T10:39:07.099Z,51.40
2023-02-12T10:40:07.081Z,49.00
2023-02-12T10:41:07.075Z,45.50
2023-02-12T10:42:07.046Z,46.00
2023-02-12T10:43:09.062Z,46.80
2023-02-12T10:44:07.029Z,45.80
2023-02-12T10:45:07.005Z,47.30
2023-02-12T10:46:07.060Z,46.30
2023-02-12T10:47:07.085Z,46.30
2023-02-12T10:48:06.968Z,49.50
2023-02-12T10:49:06.951Z,52.40
2023-02-12T10:50:06.939Z,50.40
2023-02-12T10:51:06.944Z,50.90
2023-02-12T10:52:06.910Z,45.60
2023-02-12T10:53:06.921Z,48.10
2023-02-12T10:54:06.885Z,44.90
2023-02-12T10:55:06.868Z,44.10
2023-02-12T10:56:06.875Z,43.40
2023-02-12T10:57:06.929Z,41.90
2023-02-12T10:58:06.829Z,46.50
2023-02-12T10:59:06.818Z,42.40
2023-02-12T11:00:06.805Z,40.70
2023-02-12T11:01:06.803Z,43.90
2023-02-12T11:02:06.780Z,39.00
2023-02-12T11:03:06.778Z,38.80
2023-02-12T11:04:06.749Z,35.40
2023-02-12T11:05:06.805Z,42.10
2023-02-12T11:06:06.742Z,40.50
2023-02-12T11:07:06.732Z,39.10
2023-02-12T11:08:06.699Z,34.50
2023-02-12T11:09:06.714Z,37.40
2023-02-12T11:10:06.671Z,34.30
2023-02-12T11:11:06.672Z,32.00
2023-02-12T11:12:06.640Z,32.90
2023-02-12T11:13:06.635Z,31.20
2023-02-12T11:14:06.611Z,32.30
2023-02-12T11:15:06.604Z,32.10
2023-02-12T11:16:06.684Z,31.60
2023-02-12T11:17:06.700Z,33.10
2023-02-12T11:18:06.561Z,28.70
2023-02-12T11:19:06.554Z,28.00
2023-02-12T11:20:06.538Z,33.40
2023-02-12T11:21:06.555Z,30.50
2023-02-12T11:22:06.508Z,27.70
2023-02-12T11:23:06.497Z,29.80
2023-02-12T11:24:06.486Z,29.20
2023-02-12T11:25:06.496Z,28.80
2023-02-12T11:26:06.505Z,26.40
2023-02-12T11:27:06.445Z,25.20
2023-02-12T11:28:06.531Z,22.50
2023-02-12T11:29:07.282Z,26.00
2023-02-12T11:30:06.404Z,20.70
2023-02-12T11:31:06.465Z,19.30
2023-02-12T11:32:06.440Z,17.80
2023-02-12T11:33:06.377Z,17.10
2023-02-12T11:34:06.355Z,18.00
2023-02-12T11:35:06.361Z,17.70
2023-02-12T11:36:07.453Z,16.60
2023-02-12T11:37:06.330Z,17.00
2023-02-12T11:38:06.299Z,16.70
2023-02-12T11:39:06.286Z,17.90
2023-02-12T11:40:06.290Z,15.60
2023-02-12T11:41:06.290Z,15.30
2023-02-12T11:42:06.266Z,14.70
2023-02-12T11:43:06.245Z,15.10
2023-02-12T11:44:06.222Z,13.20
2023-02-12T11:45:06.217Z,12.90
2023-02-12T11:46:06.522Z,13.00
2023-02-12T11:47:06.209Z,14.50
2023-02-12T11:48:06.175Z,15.40
2023-02-12T11:49:06.160Z,15.10
2023-02-12T11:50:06.195Z,17.60
2023-02-12T11:51:06.170Z,16.70
2023-02-12T11:52:06.135Z,16.50
2023-02-12T11:53:06.110Z,16.40
2023-02-12T11:54:06.098Z,16.80
2023-02-12T11:55:06.081Z,20.40
2023-02-12T11:56:06.065Z,23.50
2023-02-12T11:57:06.101Z,22.00
2023-02-12T11:58:06.048Z,24.10
2023-02-12T11:59:06.028Z,22.80
2023-02-12T12:00:06.015Z,22.40
2023-02-12T12:01:05.999Z,23.60
2023-02-12T12:02:06.173Z,24.10
2023-02-12T12:03:06.058Z,23.70
2023-02-12T12:04:05.990Z,21.60
2023-02-12T12:05:05.953Z,19.30
2023-02-12T12:06:05.938Z,22.00
2023-02-12T12:07:05.938Z,20.60
2023-02-12T12:08:05.903Z,21.40
2023-02-12T12:09:05.893Z,21.50
2023-02-12T12:10:05.887Z,21.10
2023-02-12T12:11:05.868Z,23.10
2023-02-12T12:12:05.866Z,23.50
2023-02-12T12:13:05.871Z,24.50
2023-02-12T12:14:05.830Z,19.90
2023-02-12T12:15:05.813Z,22.30
2023-02-12T12:16:05.831Z,22.10
2023-02-12T12:17:05.810Z,21.90
2023-02-12T12:18:06.022Z,20.50
2023-02-12T12:19:05.781Z,21.90
2023-02-12T12:20:05.749Z,23.00
2023-02-12T12:21:05.732Z,23.30
2023-02-12T12:22:05.733Z,22.90
2023-02-12T12:23:05.710Z,23.80
2023-02-12T12:24:05.707Z,21.70
2023-02-12T12:25:06.479Z,22.90
2023-02-12T12:26:05.684Z,20.70
2023-02-12T12:27:05.672Z,19.60
2023-02-12T12:28:05.843Z,20.20
2023-02-12T12:29:08.194Z,19.80
2023-02-12T12:30:05.618Z,19.40
2023-02-12T12:31:05.666Z,18.70
2023-02-12T12:32:05.629Z,18.40
2023-02-12T12:33:05.578Z,17.80
2023-02-12T12:34:05.565Z,17.40
2023-02-12T12:35:05.558Z,17.30
2023-02-12T12:36:05.539Z,15.40
2023-02-12T12:37:05.547Z,15.30
2023-02-12T12:38:05.513Z,15.00
2023-02-12T12:39:05.507Z,14.80
2023-02-12T12:40:05.489Z,14.80
2023-02-12T12:41:05.472Z,14.80
2023-02-12T12:42:05.478Z,14.80
2023-02-12T12:43:05.459Z,15.30
2023-02-12T12:44:05.438Z,14.70
2023-02-12T12:45:05.450Z,14.70
2023-02-12T12:46:06.073Z,14.40
2023-02-12T12:47:05.426Z,15.10
2023-02-12T12:48:05.385Z,14.40
2023-02-12T12:49:05.366Z,14.60
2023-02-12T12:50:05.357Z,14.20
2023-02-12T12:51:05.365Z,13.80
2023-02-12T12:52:05.329Z,14.90